Time;durP1;ratioP1;P1;durP2;ratioP2;P2;SDS_P1;SDS_P2;PMS_P1;PMS_P2;Temp;Humidity;BMP_temperature;BMP_pressure;BME280_temperature;BME280_humidity;BME280_pressure;Samples;Min_cycle;Max_cycle;Signal;HPM_P1;HPM_P2
2022/09/06 00:00:00;;;;;;;2.10;1.60;;;25.40;99.90;;;;;;1030897;28;20026;-72
2022/09/06 00:00:30;;;;;;;1.30;1.20;;;25.40;99.90;;;;;;1031001;28;20136;-70
2022/09/06 00:01:07;;;;;;;2.00;1.53;;;25.40;99.90;;;;;;1030806;28;20026;-70
2022/09/06 00:01:38;;;;;;;1.40;1.20;;;25.40;99.90;;;;;;1030383;28;20126;-71
2022/09/06 00:02:08;;;;;;;1.43;1.10;;;25.40;99.90;;;;;;1030679;28;20029;-70
2022/09/06 00:02:40;;;;;;;1.50;1.30;;;25.40;99.90;;;;;;1030598;28;20018;-70
2022/09/06 00:03:10;;;;;;;3.17;1.20;;;25.40;99.90;;;;;;1030567;28;20025;-70
2022/09/06 00:03:41;;;;;;;1.40;1.30;;;25.40;99.90;;;;;;1030815;28;20015;-70
2022/09/06 00:04:12;;;;;;;1.70;1.40;;;25.40;99.90;;;;;;1031026;28;20699;-70
2022/09/06 00:04:42;;;;;;;2.53;1.30;;;25.40;99.90;;;;;;1031007;28;20635;-70
2022/09/06 00:05:13;;;;;;;1.23;1.13;;;25.40;99.90;;;;;;1034463;28;20041;-69
2022/09/06 00:05:43;;;;;;;3.87;1.40;;;25.40;99.90;;;;;;1034879;28;20145;-70
2022/09/06 00:06:18;;;;;;;1.30;1.13;;;25.40;99.90;;;;;;1034550;28;20032;-70
2022/09/06 00:06:48;;;;;;;2.03;1.60;;;25.40;99.90;;;;;;1034235;28;20026;-70
2022/09/06 00:07:19;;;;;;;1.13;1.00;;;25.40;99.90;;;;;;1030482;28;20106;-70
2022/09/06 00:07:49;;;;;;;2.20;1.63;;;25.40;99.90;;;;;;1030821;28;20029;-69
2022/09/06 00:08:20;;;;;;;1.63;1.43;;;25.40;99.90;;;;;;1030435;28;20030;-70
2022/09/06 00:08:50;;;;;;;1.30;1.10;;;25.30;99.90;;;;;;1030854;28;20027;-70
2022/09/06 00:09:21;;;;;;;2.33;1.50;;;25.30;99.90;;;;;;1030335;28;20025;-71
2022/09/06 00:09:51;;;;;;;1.40;1.10;;;25.30;99.90;;;;;;1026976;28;20021;-71
2022/09/06 00:10:22;;;;;;;2.77;1.57;;;25.30;99.90;;;;;;1030285;28;20525;-71
2022/09/06 00:10:56;;;;;;;1.80;1.47;;;25.30;99.90;;;;;;1030888;28;20050;-71
2022/09/06 00:11:27;;;;;;;1.98;1.63;;;25.30;99.90;;;;;;1026636;28;20694;-70
2022/09/06 00:11:58;;;;;;;1.77;1.30;;;25.30;99.90;;;;;;1030760;28;20022;-68
2022/09/06 00:12:29;;;;;;;1.63;1.50;;;25.30;99.90;;;;;;1030345;28;20029;-70
2022/09/06 00:13:04;;;;;;;2.40;1.55;;;25.30;99.90;;;;;;1030891;28;20035;-71
2022/09/06 00:13:35;;;;;;;1.60;1.50;;;25.30;99.90;;;;;;1030753;28;20040;-70
2022/09/06 00:14:06;;;;;;;2.00;1.67;;;25.30;99.90;;;;;;1030894;28;20026;-70
2022/09/06 00:14:36;;;;;;;2.50;1.23;;;25.30;99.90;;;;;;1030627;28;20019;-71
2022/09/06 00:15:07;;;;;;;1.50;1.40;;;25.30;99.90;;;;;;1031245;28;20029;-71
2022/09/06 00:15:38;;;;;;;1.70;1.60;;;25.30;99.90;;;;;;1030675;28;20401;-70
2022/09/06 00:16:14;;;;;;;1.60;1.20;;;25.30;99.90;;;;;;1034505;28;20468;-70
2022/09/06 00:16:45;;;;;;;1.88;1.17;;;25.20;99.90;;;;;;1034519;28;20024;-70
2022/09/06 00:17:16;;;;;;;2.22;1.58;;;25.20;99.90;;;;;;1034521;28;20079;-69
2022/09/06 00:17:48;;;;;;;1.80;1.40;;;25.20;99.90;;;;;;1033496;28;20056;-71
2022/09/06 00:18:18;;;;;;;1.80;1.42;;;25.20;99.90;;;;;;1030449;28;20070;-71
2022/09/06 00:18:53;;;;;;;1.57;1.43;;;25.20;99.90;;;;;;1026440;28;20023;-70
2022/09/06 00:19:24;;;;;;;2.20;1.73;;;25.20;99.90;;;;;;1023342;28;20114;-71
2022/09/06 00:19:54;;;;;;;2.20;1.50;;;25.20;99.90;;;;;;1026642;28;20027;-70
2022/09/06 00:20:26;;;;;;;1.93;1.30;;;25.20;99.90;;;;;;1027319;28;20400;-70
2022/09/06 00:20:56;;;;;;;1.33;1.20;;;25.20;99.90;;;;;;1030501;28;20022;-70
2022/09/06 00:21:28;;;;;;;1.80;1.40;;;25.20;99.90;;;;;;1030954;28;20109;-70
2022/09/06 00:21:59;;;;;;;2.45;1.55;;;25.20;99.90;;;;;;1030968;28;20061;-70
2022/09/06 00:22:29;;;;;;;2.03;1.47;;;25.20;99.90;;;;;;1030960;28;20030;-69
2022/09/06 00:23:03;;;;;;;2.67;1.40;;;25.20;99.90;;;;;;1030851;28;20022;-69
2022/09/06 00:23:33;;;;;;;1.50;1.40;;;25.20;99.90;;;;;;1031056;28;20109;-72
2022/09/06 00:24:04;;;;;;;3.87;1.60;;;25.20;99.90;;;;;;1029227;28;20030;-70
2022/09/06 00:24:36;;;;;;;1.58;1.30;;;25.20;99.90;;;;;;1026965;28;20077;-70
2022/09/06 00:25:07;;;;;;;1.92;1.27;;;25.20;99.90;;;;;;1026891;28;20015;-70
2022/09/06 00:25:37;;;;;;;2.60;1.50;;;25.20;99.90;;;;;;1027254;28;20011;-70
2022/09/06 00:26:08;;;;;;;1.17;1.00;;;25.20;99.90;;;;;;1030959;28;20018;-70
2022/09/06 00:26:38;;;;;;;2.00;1.37;;;25.20;99.90;;;;;;1031075;28;20365;-70
2022/09/06 00:27:09;;;;;;;3.00;1.50;;;25.20;99.90;;;;;;1030829;28;20528;-69
2022/09/06 00:27:39;;;;;;;1.97;1.23;;;25.20;99.90;;;;;;1030854;28;20121;-70
2022/09/06 00:28:10;;;;;;;1.33;1.17;;;25.20;99.90;;;;;;1031089;28;20042;-70
2022/09/06 00:28:41;;;;;;;1.73;1.20;;;25.20;99.90;;;;;;1030807;28;20017;-69
2022/09/06 00:29:11;;;;;;;1.17;1.07;;;25.20;99.90;;;;;;1030761;28;20614;-68
2022/09/06 00:29:42;;;;;;;1.80;1.20;;;25.20;99.90;;;;;;1030809;28;20010;-70
2022/09/06 00:30:13;;;;;;;1.43;1.33;;;25.20;99.90;;;;;;1031005;28;20022;-70
2022/09/06 00:30:43;;;;;;;1.50;1.40;;;25.20;99.90;;;;;;1034250;28;20010;-71
2022/09/06 00:31:20;;;;;;;2.17;1.67;;;25.20;99.90;;;;;;1034227;28;20543;-70
2022/09/06 00:31:51;;;;;;;1.52;1.13;;;25.20;99.90;;;;;;1034675;28;20433;-70
2022/09/06 00:32:21;;;;;;;1.43;1.30;;;25.20;99.90;;;;;;1033549;28;20512;-70
2022/09/06 00:32:52;;;;;;;2.17;1.50;;;25.20;99.90;;;;;;1030518;28;20024;-70
2022/09/06 00:33:23;;;;;;;1.40;1.30;;;25.30;99.90;;;;;;1030395;28;20204;-70
2022/09/06 00:33:54;;;;;;;1.52;1.30;;;25.20;99.90;;;;;;1031134;28;20369;-70
2022/09/06 00:34:25;;;;;;;1.30;1.20;;;25.20;99.90;;;;;;1030610;28;20482;-70
2022/09/06 00:34:56;;;;;;;1.92;1.40;;;25.20;99.90;;;;;;1031003;28;20029;-71
2022/09/06 00:35:27;;;;;;;1.87;1.40;;;25.20;99.90;;;;;;1030810;28;20025;-70
2022/09/06 00:35:58;;;;;;;1.70;1.60;;;25.20;99.90;;;;;;1031002;28;20042;-71
2022/09/06 00:36:29;;;;;;;1.60;1.25;;;25.20;99.90;;;;;;1030815;28;20540;-70
2022/09/06 00:37:00;;;;;;;1.40;1.20;;;25.20;99.90;;;;;;1031017;28;20038;-71
2022/09/06 00:37:31;;;;;;;1.60;1.20;;;25.20;99.90;;;;;;1030662;28;20011;-70
2022/09/06 00:38:01;;;;;;;2.00;1.30;;;25.20;99.90;;;;;;1030920;28;20014;-70
2022/09/06 00:38:32;;;;;;;1.20;1.10;;;25.20;99.90;;;;;;1030877;28;20030;-71
2022/09/06 00:39:03;;;;;;;1.37;1.10;;;25.20;99.90;;;;;;1031010;28;20014;-70
2022/09/06 00:39:34;;;;;;;1.43;1.10;;;25.20;99.90;;;;;;1030691;28;20021;-70
2022/09/06 00:40:05;;;;;;;1.63;1.20;;;25.20;99.90;;;;;;1030975;28;20692;-70
2022/09/06 00:40:35;;;;;;;2.08;1.77;;;25.20;99.90;;;;;;1030809;28;20403;-68
2022/09/06 00:41:08;;;;;;;1.40;1.30;;;25.20;99.90;;;;;;1030857;28;20527;-71
2022/09/06 00:41:38;;;;;;;1.98;1.35;;;25.20;99.90;;;;;;1030218;28;20018;-70
2022/09/06 00:42:11;;;;;;;1.57;1.20;;;25.20;99.90;;;;;;1030473;28;20025;-71
2022/09/06 00:42:42;;;;;;;2.30;1.33;;;25.20;99.90;;;;;;1030338;28;20019;-69
2022/09/06 00:43:12;;;;;;;1.97;1.53;;;25.20;99.90;;;;;;1030602;28;20033;-70
2022/09/06 00:43:43;;;;;;;1.20;1.07;;;25.20;99.90;;;;;;1030818;28;20642;-70
2022/09/06 00:44:14;;;;;;;1.70;1.40;;;25.20;99.90;;;;;;1030704;28;20019;-70
2022/09/06 00:44:45;;;;;;;1.43;1.17;;;25.20;99.90;;;;;;1030806;28;20578;-69
2022/09/06 00:45:15;;;;;;;2.40;1.40;;;25.20;99.90;;;;;;1030425;28;20109;-67
2022/09/06 00:45:46;;;;;;;2.00;1.60;;;25.20;99.90;;;;;;1030606;28;20019;-69
2022/09/06 00:46:19;;;;;;;3.00;1.30;;;25.20;99.90;;;;;;1026293;28;20653;-69
2022/09/06 00:46:52;;;;;;;2.25;1.10;;;25.20;99.90;;;;;;1027252;28;20505;-70
2022/09/06 00:47:23;;;;;;;1.45;1.10;;;25.20;99.90;;;;;;1030361;28;20026;-70
2022/09/06 00:47:55;;;;;;;1.10;1.00;;;25.20;99.90;;;;;;1030585;28;20022;-69
2022/09/06 00:48:25;;;;;;;1.58;1.33;;;25.20;99.90;;;;;;1030585;28;20028;-69
2022/09/06 00:49:05;;;;;;;1.70;1.43;;;25.20;99.90;;;;;;1031053;28;20041;-69
2022/09/06 00:49:43;;;;;;;1.70;1.60;;;25.20;99.90;;;;;;1030549;28;20018;-68
2022/09/06 00:50:16;;;;;;;1.40;1.05;;;25.20;99.90;;;;;;1034524;28;20640;-69
2022/09/06 00:50:49;;;;;;;1.90;1.67;;;25.20;99.90;;;;;;1034292;28;20057;-70
2022/09/06 00:51:21;;;;;;;1.38;1.27;;;25.20;99.90;;;;;;1034217;28;20030;-69
2022/09/06 00:51:59;;;;;;;1.73;1.35;;;25.20;99.90;;;;;;1033710;28;20037;-69
2022/09/06 00:52:32;;;;;;;1.23;1.13;;;25.20;99.90;;;;;;1030660;28;20719;-69
2022/09/06 00:53:03;;;;;;;1.42;1.33;;;25.20;99.90;;;;;;1030813;28;20041;-68
2022/09/06 00:53:33;;;;;;;1.83;1.53;;;25.20;99.90;;;;;;1030105;28;20074;-70
2022/09/06 00:54:07;;;;;;;1.57;1.40;;;25.20;99.90;;;;;;1030708;28;20022;-70
2022/09/06 00:54:38;;;;;;;1.60;1.50;;;25.20;99.90;;;;;;1027582;28;20023;-68
2022/09/06 00:55:09;;;;;;;2.03;1.63;;;25.10;99.90;;;;;;1030562;28;20473;-69
2022/09/06 00:55:41;;;;;;;1.67;1.40;;;25.20;99.90;;;;;;1030622;28;20496;-68
2022/09/06 00:56:13;;;;;;;2.40;1.50;;;25.10;99.90;;;;;;1030686;28;20019;-68
2022/09/06 00:56:44;;;;;;;2.30;1.35;;;25.10;99.90;;;;;;1030680;28;20014;-69
2022/09/06 00:57:16;;;;;;;1.55;1.40;;;25.10;99.90;;;;;;1030178;28;20034;-69
2022/09/06 00:57:51;;;;;;;1.38;1.27;;;25.10;99.90;;;;;;1028191;28;20023;-70
2022/09/06 00:58:23;;;;;;;1.48;1.20;;;25.10;99.90;;;;;;1034219;28;20593;-69
2022/09/06 00:58:54;;;;;;;1.73;1.30;;;25.10;99.90;;;;;;1030195;28;20029;-69
2022/09/06 00:59:30;;;;;;;3.17;1.52;;;25.10;99.90;;;;;;1030240;28;20010;-69
2022/09/06 01:00:03;;;;;;;1.30;1.20;;;25.10;99.90;;;;;;1026000;28;20041;-70
2022/09/06 01:00:34;;;;;;;1.13;0.98;;;25.10;99.90;;;;;;1023906;28;20704;-69
2022/09/06 01:01:06;;;;;;;3.13;1.30;;;25.10;99.90;;;;;;1026775;28;20695;-69
2022/09/06 01:01:37;;;;;;;1.65;1.40;;;25.10;99.90;;;;;;1029260;28;20133;-69
2022/09/06 01:02:08;;;;;;;1.70;1.60;;;25.10;99.90;;;;;;1030850;28;20036;-69
2022/09/06 01:02:38;;;;;;;2.33;1.70;;;25.10;99.90;;;;;;1030542;28;20025;-70
2022/09/06 01:03:10;;;;;;;2.03;1.40;;;25.10;99.90;;;;;;1030682;28;20022;-68
2022/09/06 01:03:41;;;;;;;1.42;1.25;;;25.10;99.90;;;;;;1030415;28;20058;-69
2022/09/06 01:04:12;;;;;;;1.70;1.60;;;25.10;99.90;;;;;;1034393;28;20125;-68
2022/09/06 01:04:44;;;;;;;2.35;1.30;;;25.10;99.90;;;;;;1034145;28;20095;-68
2022/09/06 01:05:15;;;;;;;2.35;1.38;;;25.10;99.90;;;;;;1034330;28;20079;-70
2022/09/06 01:06:04;;;;;;;1.40;1.20;;;25.10;99.90;;;;;;1033986;28;20029;-69
2022/09/06 01:06:46;;;;;;;1.42;1.27;;;25.10;99.90;;;;;;1030752;28;20026;-69
2022/09/06 01:07:44;;;;;;;1.63;1.42;;;25.10;99.90;;;;;;1033704;28;20025;-69
2022/09/06 01:08:45;;;;;;;1.80;1.33;;;25.10;99.90;;;;;;1032863;28;20053;-69
2022/09/06 01:09:37;;;;;;;2.45;1.40;;;25.10;99.90;;;;;;1030735;28;20057;-68
2022/09/06 01:10:29;;;;;;;1.67;1.38;;;25.10;99.90;;;;;;1034427;28;20382;-69
2022/09/06 01:11:47;;;;;;;1.38;1.27;;;25.10;99.90;;;;;;1033805;28;20018;-70
2022/09/06 01:12:45;;;;;;;1.50;1.30;;;25.10;99.90;;;;;;1025587;28;20698;-71
2022/09/06 01:13:53;;;;;;;1.30;1.20;;;25.10;99.90;;;;;;1030503;28;20038;-69
2022/09/06 01:14:46;;;;;;;1.38;1.00;;;25.10;99.90;;;;;;1029795;28;20378;-69
2022/09/06 01:15:32;;;;;;;1.50;1.20;;;25.10;99.90;;;;;;1030630;28;20496;-69
2022/09/06 01:16:15;;;;;;;1.55;1.30;;;25.10;99.90;;;;;;1027062;28;20019;-69
2022/09/06 01:17:33;;;;;;;1.45;1.30;;;25.10;99.90;;;;;;1026745;28;20022;-68
2022/09/06 01:18:18;;;;;;;1.92;1.52;;;25.10;99.90;;;;;;1022109;29;20027;-68
2022/09/06 01:19:10;;;;;;;2.08;1.63;;;25.10;99.90;;;;;;1023933;28;20940;-69
2022/09/06 01:20:11;;;;;;;2.30;1.60;;;25.10;99.90;;;;;;1030635;28;20030;-69
2022/09/06 01:21:26;;;;;;;1.90;1.23;;;25.10;99.90;;;;;;1028681;28;20030;-70
2022/09/06 01:22:31;;;;;;;1.50;1.30;;;25.10;99.90;;;;;;1025870;28;20019;-69
2022/09/06 01:23:17;;;;;;;1.58;1.20;;;25.10;99.90;;;;;;1026183;28;20176;-69
2022/09/06 01:24:12;;;;;;;1.40;1.30;;;25.10;99.90;;;;;;1027201;28;20656;-70
2022/09/06 01:25:20;;;;;;;1.65;1.55;;;25.10;99.90;;;;;;1030722;28;20483;-69
2022/09/06 01:26:12;;;;;;;1.98;1.60;;;25.10;99.90;;;;;;1030637;28;20023;-69
2022/09/06 01:27:13;;;;;;;2.67;1.52;;;25.10;99.90;;;;;;1030757;28;20025;-69
2022/09/06 01:28:08;;;;;;;2.35;1.65;;;25.00;99.90;;;;;;1030443;28;20049;-69
2022/09/06 01:28:43;;;;;;;2.38;1.63;;;25.00;99.90;;;;;;1030812;28;20026;-68
2022/09/06 01:29:29;;;;;;;1.83;1.42;;;25.00;99.90;;;;;;1030488;28;20058;-68
2022/09/06 01:30:08;;;;;;;2.35;1.50;;;25.00;99.90;;;;;;1030866;28;20026;-68
2022/09/06 01:31:01;;;;;;;2.70;1.67;;;25.00;99.90;;;;;;1030590;28;20053;-69
2022/09/06 01:31:38;;;;;;;1.60;1.50;;;25.00;99.90;;;;;;1030645;28;20026;-69
2022/09/06 01:32:22;;;;;;;2.85;1.85;;;25.00;99.90;;;;;;1030759;28;20037;-69
2022/09/06 01:33:08;;;;;;;1.60;1.35;;;25.00;99.90;;;;;;1028790;28;20081;-69
2022/09/06 01:33:45;;;;;;;1.27;1.15;;;25.00;99.90;;;;;;1030146;28;20665;-69
2022/09/06 01:34:37;;;;;;;2.78;1.40;;;25.00;99.90;;;;;;1030165;28;20018;-68
2022/09/06 01:35:30;;;;;;;3.00;1.67;;;25.00;99.90;;;;;;1030436;28;20022;-67
2022/09/06 01:36:08;;;;;;;2.17;1.65;;;24.90;99.90;;;;;;1034352;28;20029;-68
2022/09/06 01:36:41;;;;;;;1.42;1.30;;;24.90;99.90;;;;;;1030590;28;20077;-69
2022/09/06 01:37:16;;;;;;;2.22;1.52;;;24.90;99.90;;;;;;1030908;28;20027;-67
2022/09/06 01:37:47;;;;;;;2.17;1.38;;;24.90;99.90;;;;;;1028546;28;20031;-68
2022/09/06 01:38:18;;;;;;;1.77;1.60;;;24.90;99.90;;;;;;1026259;28;20019;-68
2022/09/06 01:38:49;;;;;;;1.97;1.80;;;24.90;99.90;;;;;;1022292;28;20418;-68
2022/09/06 01:39:26;;;;;;;1.90;1.43;;;24.90;99.90;;;;;;1022226;29;20015;-68
2022/09/06 01:39:57;;;;;;;1.50;1.35;;;24.90;99.90;;;;;;1023487;28;20106;-68
2022/09/06 01:40:28;;;;;;;1.97;1.60;;;24.90;99.90;;;;;;1023384;28;20035;-69
2022/09/06 01:40:58;;;;;;;1.63;1.20;;;24.90;99.90;;;;;;1028384;28;20030;-69
2022/09/06 01:41:29;;;;;;;2.50;1.47;;;24.90;99.90;;;;;;1030192;28;20030;-68
2022/09/06 01:42:26;;;;;;;2.42;1.50;;;24.90;99.90;;;;;;1026354;28;20066;-68
2022/09/06 01:42:57;;;;;;;2.08;1.45;;;24.90;99.90;;;;;;1030316;28;20457;-69
2022/09/06 01:43:41;;;;;;;2.20;1.60;;;24.90;99.90;;;;;;1030285;28;20569;-68
2022/09/06 01:44:11;;;;;;;1.40;1.30;;;24.90;99.90;;;;;;1025879;28;20671;-68
2022/09/06 01:44:47;;;;;;;1.20;1.10;;;24.90;99.90;;;;;;1026197;28;20078;-68
2022/09/06 01:45:22;;;;;;;1.63;1.10;;;24.90;99.90;;;;;;1026070;28;20026;-67
2022/09/06 01:46:16;;;;;;;3.17;1.50;;;24.90;99.90;;;;;;1029327;28;20026;-70
2022/09/06 01:46:54;;;;;;;2.30;1.15;;;24.90;99.90;;;;;;1030849;28;20029;-69
2022/09/06 01:47:28;;;;;;;1.77;1.42;;;24.90;99.90;;;;;;1030457;28;20548;-68
2022/09/06 01:48:07;;;;;;;2.03;1.55;;;24.90;99.90;;;;;;1030423;28;20094;-68
2022/09/06 01:48:58;;;;;;;2.40;1.10;;;24.90;99.90;;;;;;1030699;28;20091;-69
2022/09/06 01:49:54;;;;;;;1.40;1.30;;;24.90;99.90;;;;;;1030343;28;20023;-69
2022/09/06 01:51:06;;;;;;;1.50;1.40;;;24.90;99.90;;;;;;1030555;28;20029;-69
2022/09/06 01:51:59;;;;;;;1.70;1.60;;;24.90;99.90;;;;;;1030596;28;20459;-69
2022/09/06 01:52:55;;;;;;;1.60;1.23;;;24.90;99.90;;;;;;1030681;28;20497;-69
2022/09/06 01:53:58;;;;;;;2.40;1.70;;;24.90;99.90;;;;;;1031077;28;20019;-68
2022/09/06 01:55:01;;;;;;;1.77;1.27;;;24.90;99.90;;;;;;1029515;28;20038;-68
2022/09/06 01:55:42;;;;;;;1.40;1.30;;;24.90;99.90;;;;;;1030627;28;20015;-69
2022/09/06 01:56:40;;;;;;;2.38;1.20;;;24.90;99.90;;;;;;1030710;28;20019;-68
2022/09/06 01:57:50;;;;;;;1.55;1.35;;;24.90;99.90;;;;;;1030378;28;20068;-68
2022/09/06 01:58:50;;;;;;;2.67;1.75;;;24.90;99.90;;;;;;1030132;28;20019;-68
2022/09/06 01:59:39;;;;;;;1.85;1.42;;;24.90;99.90;;;;;;1030481;28;20022;-68
2022/09/06 02:00:16;;;;;;;2.13;1.63;;;24.90;99.90;;;;;;1026528;28;20334;-69
2022/09/06 02:01:00;;;;;;;1.40;1.30;;;24.90;99.90;;;;;;1026493;28;20026;-68
2022/09/06 02:02:08;;;;;;;2.22;1.60;;;24.90;99.90;;;;;;1033336;28;20756;-69
2022/09/06 02:03:06;;;;;;;1.77;1.45;;;24.90;99.90;;;;;;1025619;28;20638;-67
2022/09/06 02:03:45;;;;;;;2.10;1.48;;;24.90;99.90;;;;;;1024398;28;20083;-67
2022/09/06 02:04:48;;;;;;;;;;;24.90;99.90;;;;;;1026369;28;20189;-68
2022/09/06 02:05:22;;;;;;;1.27;1.05;;;24.90;99.90;;;;;;1017810;29;19950;-68
2022/09/06 02:05:59;;;;;;;2.65;1.67;;;24.90;99.90;;;;;;1021836;29;20027;-68
2022/09/06 02:06:36;;;;;;;2.03;1.40;;;24.90;99.90;;;;;;1025043;28;20393;-67
2022/09/06 02:07:23;;;;;;;1.70;1.33;;;24.90;99.90;;;;;;1028351;28;20011;-68
2022/09/06 02:07:59;;;;;;;1.27;1.10;;;24.90;99.90;;;;;;1030443;28;20026;-68
2022/09/06 02:08:45;;;;;;;1.58;1.38;;;24.90;99.90;;;;;;1030542;28;20019;-68
2022/09/06 02:09:23;;;;;;;1.98;1.77;;;24.90;99.90;;;;;;1030179;28;20022;-66
2022/09/06 02:09:56;;;;;;;;;;;24.90;99.90;;;;;;1031142;28;20014;-68
2022/09/06 02:10:36;;;;;;;1.92;1.48;;;24.90;99.90;;;;;;1030283;28;19913;-66
2022/09/06 02:11:08;;;;;;;2.33;1.85;;;24.90;99.90;;;;;;1033981;28;20014;-68
2022/09/06 02:11:45;;;;;;;2.38;1.58;;;24.90;99.90;;;;;;1034022;28;20017;-68
2022/09/06 02:12:17;;;;;;;1.73;1.45;;;24.80;99.90;;;;;;1034044;28;20041;-66
2022/09/06 02:12:52;;;;;;;1.40;1.30;;;24.90;99.90;;;;;;1033418;28;20076;-69
2022/09/06 02:13:24;;;;;;;1.35;1.15;;;24.80;99.90;;;;;;1030426;28;20112;-68
2022/09/06 02:14:00;;;;;;;1.67;1.38;;;24.80;99.90;;;;;;1030578;28;20026;-68
2022/09/06 02:14:37;;;;;;;1.30;1.20;;;24.80;99.90;;;;;;1029971;28;20517;-69
2022/09/06 02:15:15;;;;;;;1.65;1.55;;;24.80;99.90;;;;;;1030202;28;20505;-69
2022/09/06 02:15:54;;;;;;;2.55;1.50;;;24.80;99.90;;;;;;1029966;28;20561;-69
2022/09/06 02:16:28;;;;;;;1.83;1.25;;;24.80;99.90;;;;;;1030482;28;20010;-68
2022/09/06 02:17:01;;;;;;;1.90;1.50;;;24.80;99.90;;;;;;1030587;28;20081;-67
2022/09/06 02:17:37;;;;;;;2.20;1.65;;;24.80;99.90;;;;;;1026661;28;20034;-69
2022/09/06 02:18:14;;;;;;;1.90;1.70;;;24.80;99.90;;;;;;1030634;28;20022;-67
2022/09/06 02:19:02;;;;;;;3.60;1.95;;;24.80;99.90;;;;;;1030331;28;20011;-69
2022/09/06 02:19:38;;;;;;;1.95;1.55;;;24.80;99.90;;;;;;1026323;28;20037;-68
2022/09/06 02:20:15;;;;;;;1.90;1.60;;;24.80;99.90;;;;;;1026591;28;20022;-69
2022/09/06 02:20:50;;;;;;;1.20;1.10;;;24.70;99.90;;;;;;1028462;28;20018;-68
2022/09/06 02:21:26;;;;;;;1.65;1.40;;;24.70;99.90;;;;;;1030401;28;20006;-68
2022/09/06 02:21:58;;;;;;;3.00;1.33;;;24.80;99.90;;;;;;1030228;28;20014;-67
2022/09/06 02:22:33;;;;;;;2.25;1.77;;;24.80;99.90;;;;;;1029213;28;20113;-67
2022/09/06 02:23:05;;;;;;;1.63;1.40;;;24.70;99.90;;;;;;1030202;28;20105;-70
2022/09/06 02:23:39;;;;;;;1.38;1.27;;;24.70;99.90;;;;;;1030214;28;20069;-68
2022/09/06 02:24:18;;;;;;;1.52;1.40;;;24.70;99.90;;;;;;1030378;28;20438;-70
2022/09/06 02:24:52;;;;;;;1.80;1.50;;;24.70;99.90;;;;;;1030206;28;20030;-68
2022/09/06 02:25:49;;;;;;;3.42;1.58;;;24.70;99.90;;;;;;1030398;28;20092;-68
2022/09/06 02:26:22;;;;;;;;;;;24.70;99.90;;;;;;1027584;28;20089;-69
2022/09/06 02:26:52;;;;;;;1.88;1.50;;;24.70;99.90;;;;;;1030338;28;19906;-68
2022/09/06 02:27:23;;;;;;;3.13;1.60;;;24.70;99.90;;;;;;1030287;28;20018;-69
2022/09/06 02:27:54;;;;;;;2.40;1.90;;;24.70;99.90;;;;;;1030528;28;20772;-67
2022/09/06 02:28:26;;;;;;;1.48;1.20;;;24.70;99.90;;;;;;1030194;28;20097;-67
2022/09/06 02:28:57;;;;;;;2.67;1.50;;;24.70;99.90;;;;;;1029925;28;20019;-67
2022/09/06 02:29:28;;;;;;;1.53;1.43;;;24.70;99.90;;;;;;1030098;28;20026;-68
2022/09/06 02:30:01;;;;;;;1.77;1.30;;;24.70;99.90;;;;;;1030053;28;20053;-65
2022/09/06 02:30:37;;;;;;;1.38;1.23;;;24.70;99.90;;;;;;1030164;28;20061;-68
2022/09/06 02:31:16;;;;;;;1.98;1.77;;;24.70;99.90;;;;;;1030385;28;20023;-69
2022/09/06 02:31:52;;;;;;;3.08;1.77;;;24.70;99.90;;;;;;1030649;28;20481;-67
2022/09/06 02:32:25;;;;;;;1.73;1.35;;;24.70;99.90;;;;;;1029895;28;20061;-68
2022/09/06 02:33:05;;;;;;;1.50;1.23;;;24.70;99.90;;;;;;1030045;28;20029;-68
2022/09/06 02:33:36;;;;;;;1.70;1.35;;;24.70;99.90;;;;;;1029974;28;20025;-68
2022/09/06 02:34:09;;;;;;;1.75;1.58;;;24.70;99.90;;;;;;1028498;28;20054;-69
2022/09/06 02:34:40;;;;;;;2.38;1.70;;;24.70;99.90;;;;;;1029886;28;20670;-69
2022/09/06 02:35:14;;;;;;;1.63;1.50;;;24.70;99.90;;;;;;1031515;28;20018;-69
2022/09/06 02:35:48;;;;;;;1.83;1.33;;;24.70;99.90;;;;;;1031284;28;20030;-69
2022/09/06 02:36:19;;;;;;;1.40;1.30;;;24.70;99.90;;;;;;1031043;28;20018;-69
2022/09/06 02:36:50;;;;;;;2.08;1.83;;;24.70;99.90;;;;;;1031343;28;20030;-69
2022/09/06 02:37:24;;;;;;;2.07;1.37;;;24.70;99.90;;;;;;1031105;28;20019;-70
2022/09/06 02:37:55;;;;;;;2.72;1.60;;;24.70;99.90;;;;;;1031148;28;20026;-66
2022/09/06 02:38:26;;;;;;;1.93;1.80;;;24.70;99.90;;;;;;1031026;28;20030;-67
2022/09/06 02:38:59;;;;;;;1.87;1.77;;;24.70;99.90;;;;;;1031314;28;20037;-68
2022/09/06 02:39:29;;;;;;;2.42;1.83;;;24.70;99.90;;;;;;1030787;28;20023;-68
2022/09/06 02:40:00;;;;;;;2.67;2.00;;;24.70;99.90;;;;;;1031259;28;20073;-68
2022/09/06 02:40:30;;;;;;;1.33;1.23;;;24.70;99.90;;;;;;1031221;28;20477;-66
2022/09/06 02:41:03;;;;;;;1.63;1.47;;;24.70;99.90;;;;;;1031121;28;20022;-68
2022/09/06 02:41:34;;;;;;;2.72;1.63;;;24.70;99.90;;;;;;1030752;28;20065;-68
2022/09/06 02:42:06;;;;;;;1.50;1.17;;;24.70;99.90;;;;;;1031099;28;20022;-68
2022/09/06 02:42:38;;;;;;;1.42;1.30;;;24.70;99.90;;;;;;1030887;28;20093;-68
2022/09/06 02:43:09;;;;;;;1.70;1.20;;;24.70;99.90;;;;;;1031170;28;20585;-67
2022/09/06 02:43:43;;;;;;;1.27;1.13;;;24.70;99.90;;;;;;1031052;28;20509;-69
2022/09/06 02:44:14;;;;;;;1.90;1.63;;;24.70;99.90;;;;;;1030449;28;20056;-67
2022/09/06 02:44:45;;;;;;;1.20;1.10;;;24.70;99.90;;;;;;1030481;28;20061;-69
2022/09/06 02:45:15;;;;;;;1.60;1.50;;;24.70;99.90;;;;;;1026690;28;20014;-65
2022/09/06 02:45:46;;;;;;;3.67;1.80;;;24.70;99.90;;;;;;1026822;28;20073;-68
2022/09/06 02:46:16;;;;;;;1.50;1.40;;;24.70;99.90;;;;;;1030475;28;20026;-68
2022/09/06 02:46:47;;;;;;;2.00;1.80;;;24.70;99.90;;;;;;1030770;28;20033;-68
2022/09/06 02:47:17;;;;;;;2.97;1.60;;;24.70;99.90;;;;;;1031077;28;20752;-68
2022/09/06 02:47:48;;;;;;;2.10;1.60;;;24.70;99.90;;;;;;1031317;28;20034;-67
2022/09/06 02:48:18;;;;;;;2.07;1.30;;;24.70;99.90;;;;;;1030798;28;20516;-69
2022/09/06 02:48:50;;;;;;;3.33;1.70;;;24.70;99.90;;;;;;1031278;28;20528;-69
2022/09/06 02:49:20;;;;;;;1.20;1.10;;;24.70;99.90;;;;;;1030730;28;20018;-68
2022/09/06 02:49:51;;;;;;;1.30;1.10;;;24.70;99.90;;;;;;1030855;28;20030;-68
2022/09/06 02:50:21;;;;;;;1.77;1.27;;;24.70;99.90;;;;;;1030508;28;20018;-68
2022/09/06 02:50:52;;;;;;;1.33;1.07;;;24.70;99.90;;;;;;1030902;28;20030;-69
2022/09/06 02:51:23;;;;;;;1.73;1.30;;;24.70;99.90;;;;;;1026407;28;20019;-68
2022/09/06 02:51:53;;;;;;;1.73;1.53;;;24.70;99.90;;;;;;1027178;28;20073;-68
2022/09/06 02:52:24;;;;;;;2.00;1.40;;;24.70;99.90;;;;;;1030792;28;20026;-67
2022/09/06 02:53:08;;;;;;;1.37;1.27;;;24.70;99.90;;;;;;1031163;28;20538;-68
2022/09/06 02:53:39;;;;;;;1.85;1.58;;;24.70;99.90;;;;;;1031136;28;20050;-70
2022/09/06 02:54:10;;;;;;;2.53;1.77;;;24.70;99.90;;;;;;1031430;28;20031;-69
2022/09/06 02:54:40;;;;;;;3.03;1.57;;;24.70;99.90;;;;;;1031183;28;20031;-67
2022/09/06 02:55:11;;;;;;;2.50;1.40;;;24.70;99.90;;;;;;1031329;28;20429;-69
2022/09/06 02:55:42;;;;;;;1.53;1.30;;;24.60;99.90;;;;;;1031312;28;20536;-69
2022/09/06 02:56:12;;;;;;;1.43;1.33;;;24.70;99.90;;;;;;1031409;28;20031;-68
2022/09/06 02:56:43;;;;;;;2.30;1.67;;;24.70;99.90;;;;;;1031010;28;20093;-69
2022/09/06 02:57:13;;;;;;;1.50;1.40;;;24.60;99.90;;;;;;1031081;28;20026;-68
2022/09/06 02:57:44;;;;;;;1.80;1.10;;;24.70;99.90;;;;;;1031194;28;20023;-69
2022/09/06 02:58:15;;;;;;;1.30;1.20;;;24.70;99.90;;;;;;1031272;28;20018;-68
2022/09/06 02:58:45;;;;;;;1.80;1.30;;;24.70;99.90;;;;;;1031213;28;20080;-69
2022/09/06 02:59:16;;;;;;;2.07;1.40;;;24.60;99.90;;;;;;1031221;28;20022;-69
2022/09/06 02:59:46;;;;;;;2.00;1.50;;;24.60;99.90;;;;;;1031365;28;20370;-68
2022/09/06 03:00:17;;;;;;;2.30;1.67;;;24.60;99.90;;;;;;1031157;28;20026;-68
2022/09/06 03:00:49;;;;;;;1.77;1.63;;;24.70;99.90;;;;;;1031260;28;20022;-68
2022/09/06 03:01:20;;;;;;;1.73;1.30;;;24.60;99.90;;;;;;1031110;28;20025;-69
2022/09/06 03:01:51;;;;;;;1.57;1.47;;;24.60;99.90;;;;;;1031172;28;20025;-69
2022/09/06 03:02:21;;;;;;;1.47;1.37;;;24.60;99.90;;;;;;1031263;28;20017;-68
2022/09/06 03:02:52;;;;;;;1.77;1.60;;;24.60;99.90;;;;;;1030917;28;20516;-69
2022/09/06 03:03:23;;;;;;;1.90;1.57;;;24.60;99.90;;;;;;1030671;28;20421;-68
2022/09/06 03:03:54;;;;;;;1.88;1.27;;;24.60;99.90;;;;;;1030930;28;20019;-68
2022/09/06 03:04:25;;;;;;;2.28;1.77;;;24.60;99.90;;;;;;1030565;28;20024;-68
2022/09/06 03:04:55;;;;;;;2.30;1.60;;;24.70;99.90;;;;;;1027087;28;20015;-67
2022/09/06 03:05:26;;;;;;;2.03;1.80;;;24.60;99.90;;;;;;1030662;28;20049;-71
2022/09/06 03:05:57;;;;;;;3.22;1.50;;;24.60;99.90;;;;;;1030839;28;20461;-69
2022/09/06 03:06:28;;;;;;;2.30;1.77;;;24.60;99.90;;;;;;1030895;28;20642;-69
2022/09/06 03:06:58;;;;;;;2.37;2.17;;;24.60;99.90;;;;;;1030819;28;20018;-69
2022/09/06 03:07:29;;;;;;;1.83;1.73;;;24.60;99.90;;;;;;1031353;28;20110;-70
2022/09/06 03:08:00;;;;;;;1.43;1.23;;;24.60;99.90;;;;;;1031233;28;20726;-69
2022/09/06 03:08:32;;;;;;;1.50;1.40;;;24.60;99.90;;;;;;1031298;28;20649;-69